createdAt,value
2023-10-26T00:01:12.894Z,0.20
2023-10-26T00:03:40.990Z,0.20
2023-10-26T00:06:08.855Z,0.10
2023-10-26T00:08:36.519Z,0.00
2023-10-26T00:11:04.732Z,0.20
2023-10-26T00:13:32.591Z,0.75
2023-10-26T00:16:00.281Z,0.40
2023-10-26T00:18:28.332Z,0.20
2023-10-26T00:21:00.118Z,0.20
2023-10-26T00:23:28.426Z,0.20
2023-10-26T00:25:56.098Z,0.47
2023-10-26T00:28:23.893Z,0.00
2023-10-26T00:30:51.816Z,1.65
2023-10-26T00:33:19.643Z,0.10
2023-10-26T00:35:47.510Z,0.10
2023-10-26T00:38:16.029Z,0.00
2023-10-26T00:40:44.714Z,0.10
2023-10-26T00:43:22.588Z,0.10
2023-10-26T00:45:54.085Z,0.00
2023-10-26T00:48:22.512Z,0.10
2023-10-26T00:50:50.676Z,0.10
2023-10-26T00:53:20.000Z,0.20
2023-10-26T00:55:50.466Z,0.20
2023-10-26T00:58:19.503Z,0.10
2023-10-26T01:00:47.254Z,0.20
2023-10-26T01:03:15.631Z,0.40
2023-10-26T01:05:43.663Z,0.20
2023-10-26T01:08:11.515Z,0.65
2023-10-26T01:10:39.325Z,0.28
2023-10-26T01:13:07.462Z,0.00
2023-10-26T01:15:35.175Z,0.10
2023-10-26T01:18:02.932Z,0.98
2023-10-26T01:20:31.053Z,0.25
2023-10-26T01:22:58.770Z,0.13
2023-10-26T01:25:26.598Z,0.10
2023-10-26T01:27:54.645Z,0.05
2023-10-26T01:30:22.386Z,0.10
2023-10-26T01:32:50.393Z,0.00
2023-10-26T01:35:18.586Z,0.17
2023-10-26T01:37:46.253Z,0.00
2023-10-26T01:40:14.177Z,0.10
2023-10-26T01:42:42.353Z,0.20
2023-10-26T01:45:10.464Z,0.00
2023-10-26T01:47:39.154Z,0.32
2023-10-26T01:50:07.631Z,0.62
2023-10-26T01:52:35.713Z,0.13
2023-10-26T01:55:03.541Z,0.03
2023-10-26T01:57:31.497Z,0.30
2023-10-26T01:59:59.239Z,0.20
2023-10-26T02:02:26.944Z,0.52
2023-10-26T02:04:54.925Z,0.20
2023-10-26T02:07:22.599Z,0.00
2023-10-26T02:09:50.209Z,0.10
2023-10-26T02:12:18.089Z,0.15
2023-10-26T02:14:45.843Z,0.20
2023-10-26T02:17:16.699Z,0.00
2023-10-26T02:19:44.660Z,0.25
2023-10-26T02:22:12.423Z,0.17
2023-10-26T02:24:40.106Z,0.62
2023-10-26T02:27:08.676Z,0.08
2023-10-26T02:29:36.939Z,0.10
2023-10-26T02:32:04.961Z,0.10
2023-10-26T02:34:32.674Z,0.20
2023-10-26T02:37:00.578Z,0.10
2023-10-26T02:39:28.490Z,0.90
2023-10-26T02:41:56.412Z,0.03
2023-10-26T02:44:26.303Z,0.47
2023-10-26T02:46:53.949Z,0.08
2023-10-26T02:49:21.730Z,0.37
2023-10-26T02:51:49.720Z,0.20
2023-10-26T02:54:17.353Z,0.30
2023-10-26T02:56:45.069Z,0.22
2023-10-26T02:59:13.288Z,0.10
2023-10-26T03:01:40.985Z,0.20
2023-10-26T03:04:08.756Z,0.70
2023-10-26T03:06:40.198Z,0.10
2023-10-26T03:09:08.585Z,0.40
2023-10-26T03:11:36.649Z,0.30
2023-10-26T03:14:04.482Z,0.37
2023-10-26T03:16:33.599Z,0.50
2023-10-26T03:19:01.834Z,1.25
2023-10-26T03:21:29.897Z,0.15
2023-10-26T03:23:57.924Z,0.30
2023-10-26T03:26:25.989Z,0.20
2023-10-26T03:28:54.022Z,0.15
2023-10-26T03:31:21.637Z,0.10
2023-10-26T03:33:50.919Z,0.43
2023-10-26T03:36:21.431Z,0.08
2023-10-26T03:38:49.573Z,1.25
2023-10-26T03:41:17.261Z,0.93
2023-10-26T03:43:44.967Z,1.02
2023-10-26T03:46:12.957Z,0.47
2023-10-26T03:48:41.001Z,0.77
2023-10-26T03:51:08.707Z,0.00
2023-10-26T03:53:36.609Z,0.43
2023-10-26T03:56:04.436Z,0.05
2023-10-26T03:58:32.108Z,0.10
2023-10-26T04:01:00.010Z,0.10
2023-10-26T04:03:28.136Z,0.10
2023-10-26T04:05:55.750Z,0.00
2023-10-26T04:08:23.516Z,0.20
2023-10-26T04:10:51.528Z,0.43
2023-10-26T04:13:19.208Z,0.00
2023-10-26T04:15:47.052Z,0.10
2023-10-26T04:18:15.444Z,0.98
2023-10-26T04:20:43.158Z,0.20
2023-10-26T04:23:10.877Z,0.35
2023-10-26T04:25:53.193Z,0.20
2023-10-26T04:28:22.349Z,0.22
2023-10-26T04:30:50.690Z,0.00
2023-10-26T04:33:18.953Z,0.40
2023-10-26T04:35:48.273Z,0.77
2023-10-26T04:38:16.364Z,0.10
2023-10-26T04:40:45.083Z,0.03
2023-10-26T04:43:14.298Z,0.20
2023-10-26T04:45:42.773Z,0.77
2023-10-26T04:48:11.575Z,0.05
2023-10-26T04:50:39.301Z,0.25
2023-10-26T04:53:07.275Z,0.50
2023-10-26T04:55:35.080Z,0.10
2023-10-26T04:58:04.014Z,0.40
2023-10-26T05:00:34.152Z,0.08
2023-10-26T05:03:02.023Z,0.10
2023-10-26T05:05:29.666Z,0.68
2023-10-26T05:07:57.735Z,0.00
2023-10-26T05:10:25.352Z,0.10
2023-10-26T05:12:53.003Z,0.35
2023-10-26T05:15:20.930Z,0.60
2023-10-26T05:17:48.574Z,0.32
2023-10-26T05:20:16.362Z,0.30
2023-10-26T05:22:44.257Z,0.30
2023-10-26T05:25:12.159Z,0.10
2023-10-26T05:27:39.866Z,0.00
2023-10-26T05:30:08.607Z,0.10
2023-10-26T05:32:36.506Z,0.08
2023-10-26T05:35:04.461Z,0.30
2023-10-26T05:37:32.648Z,0.20
2023-10-26T05:40:00.322Z,0.32
2023-10-26T05:42:28.045Z,0.32
2023-10-26T05:44:56.441Z,0.05
2023-10-26T05:47:24.722Z,0.20
2023-10-26T05:49:52.478Z,1.87
2023-10-26T05:52:20.447Z,0.13
2023-10-26T05:54:48.199Z,0.10
2023-10-26T05:57:16.193Z,0.43
2023-10-26T05:59:44.304Z,0.22
2023-10-26T06:02:11.987Z,0.30
2023-10-26T06:04:39.933Z,0.20
2023-10-26T06:07:07.599Z,0.80
2023-10-26T06:09:35.328Z,0.00
2023-10-26T06:12:03.419Z,1.15
2023-10-26T06:14:31.022Z,0.52
2023-10-26T06:16:58.703Z,0.93
2023-10-26T06:19:28.936Z,0.20
2023-10-26T06:21:56.728Z,0.28
2023-10-26T06:24:24.584Z,0.77
2023-10-26T06:26:53.973Z,0.20
2023-10-26T06:29:21.795Z,0.40
2023-10-26T06:31:49.493Z,0.00
2023-10-26T06:34:17.515Z,0.20
2023-10-26T06:36:45.278Z,0.10
2023-10-26T06:39:14.240Z,0.10
2023-10-26T06:41:42.319Z,0.03
2023-10-26T06:44:10.840Z,0.15
2023-10-26T06:46:38.552Z,0.35
2023-10-26T06:49:18.436Z,0.37
2023-10-26T06:51:50.524Z,0.05
2023-10-26T06:54:18.435Z,0.70
2023-10-26T06:56:46.222Z,0.30
2023-10-26T06:59:13.910Z,0.32
2023-10-26T07:02:07.379Z,0.20
2023-10-26T07:04:29.594Z,0.37
2023-10-26T07:06:58.392Z,0.17
2023-10-26T07:09:26.124Z,1.08
2023-10-26T07:11:54.128Z,0.77
2023-10-26T07:14:22.107Z,0.37
2023-10-26T07:16:51.360Z,0.20
2023-10-26T07:19:19.016Z,0.40
2023-10-26T07:21:46.968Z,0.37
2023-10-26T07:24:14.777Z,0.10
2023-10-26T07:26:42.517Z,0.30
2023-10-26T07:29:10.463Z,0.15
2023-10-26T07:31:38.291Z,0.28
2023-10-26T07:34:06.066Z,0.60
2023-10-26T07:36:34.236Z,0.40
2023-10-26T07:39:47.247Z,1.20
2023-10-26T07:42:06.945Z,0.17
2023-10-26T07:44:37.488Z,0.35
2023-10-26T07:47:05.962Z,0.30
2023-10-26T07:49:33.584Z,0.15
2023-10-26T07:52:01.363Z,0.15
2023-10-26T07:54:29.360Z,0.50
2023-10-26T07:56:57.117Z,0.10
2023-10-26T07:59:24.847Z,0.30
2023-10-26T08:01:52.966Z,0.52
2023-10-26T08:04:21.020Z,0.10
2023-10-26T08:06:48.821Z,0.30
2023-10-26T08:09:16.565Z,0.37
2023-10-26T08:11:44.556Z,0.13
2023-10-26T08:14:35.537Z,0.88
2023-10-26T08:17:00.722Z,0.30
2023-10-26T08:19:28.533Z,0.43
2023-10-26T08:21:56.265Z,0.17
2023-10-26T08:24:24.286Z,0.40
2023-10-26T08:26:52.171Z,0.52
2023-10-26T08:29:28.305Z,0.32
2023-10-26T08:31:57.240Z,1.40
2023-10-26T08:34:24.984Z,0.03
2023-10-26T08:37:11.483Z,0.30
2023-10-26T08:39:41.128Z,0.30
2023-10-26T08:42:08.873Z,0.32
2023-10-26T08:44:37.679Z,0.20
2023-10-26T08:47:06.833Z,0.45
2023-10-26T08:49:34.768Z,0.50
2023-10-26T08:52:02.581Z,0.20
2023-10-26T08:54:30.736Z,0.15
2023-10-26T08:57:06.273Z,0.50
2023-10-26T08:59:34.653Z,0.10
2023-10-26T09:02:02.542Z,1.20
2023-10-26T09:04:30.340Z,0.65
2023-10-26T09:06:58.373Z,0.65
2023-10-26T09:09:26.128Z,0.80
2023-10-26T09:11:53.828Z,0.25
2023-10-26T09:14:22.915Z,0.35
2023-10-26T09:16:50.848Z,1.50
2023-10-26T09:19:20.070Z,0.60
2023-10-26T09:21:58.178Z,0.90
2023-10-26T09:24:27.901Z,0.28
2023-10-26T09:26:57.437Z,0.03
2023-10-26T09:29:40.567Z,0.15
2023-10-26T09:32:09.842Z,0.05
2023-10-26T09:34:42.189Z,0.40
2023-10-26T09:37:11.305Z,0.40
2023-10-26T09:39:40.441Z,0.10
2023-10-26T09:42:09.511Z,0.20
2023-10-26T09:44:38.641Z,0.50
2023-10-26T09:47:07.036Z,0.35
2023-10-26T09:49:34.912Z,0.10
2023-10-26T09:52:03.366Z,0.35
2023-10-26T09:54:36.570Z,1.37
2023-10-26T09:57:19.573Z,0.95
2023-10-26T09:59:52.694Z,0.20
2023-10-26T10:02:21.209Z,0.20
2023-10-26T10:04:49.214Z,0.60
2023-10-26T10:07:40.045Z,0.32
2023-10-26T10:10:09.945Z,0.22
2023-10-26T10:12:38.370Z,0.55
2023-10-26T10:15:29.144Z,0.62
2023-10-26T10:17:55.447Z,0.70
2023-10-26T10:20:23.373Z,0.40
2023-10-26T10:22:52.362Z,0.52
2023-10-26T10:25:20.630Z,0.15
2023-10-26T10:27:51.061Z,0.37
2023-10-26T10:30:22.771Z,0.15
2023-10-26T10:32:51.307Z,0.40
2023-10-26T10:35:22.109Z,0.28
2023-10-26T10:38:14.881Z,0.22
2023-10-26T10:41:02.621Z,0.30
2023-10-26T10:43:41.840Z,0.10
2023-10-26T10:46:23.383Z,0.75
2023-10-26T10:49:01.033Z,0.45
2023-10-26T10:51:39.437Z,0.20
2023-10-26T10:54:26.511Z,0.10
2023-10-26T10:56:57.825Z,0.43
2023-10-26T10:59:27.546Z,0.35
2023-10-26T11:02:14.777Z,0.68
2023-10-26T11:07:31.165Z,0.55
2023-10-26T11:10:00.557Z,0.15
2023-10-26T11:12:28.538Z,0.28
2023-10-26T11:14:56.203Z,0.03
2023-10-26T11:17:25.368Z,0.37
2023-10-26T11:19:53.825Z,0.43
2023-10-26T11:22:22.287Z,0.30
2023-10-26T11:24:50.892Z,0.32
2023-10-26T11:27:20.678Z,0.00
2023-10-26T11:30:04.299Z,0.20
2023-10-26T11:32:32.401Z,0.20
2023-10-26T11:35:08.004Z,0.25
2023-10-26T11:37:41.744Z,0.30
2023-10-26T11:40:11.326Z,0.62
2023-10-26T11:42:58.518Z,0.82
2023-10-26T11:45:27.043Z,0.35
2023-10-26T11:48:00.922Z,0.25
2023-10-26T11:50:30.391Z,0.37
2023-10-26T11:52:59.114Z,0.40
2023-10-26T11:55:28.937Z,0.30
2023-10-26T11:57:56.808Z,0.20
2023-10-26T12:00:25.905Z,0.50
2023-10-26T12:03:00.873Z,0.30
2023-10-26T12:05:28.728Z,0.30
2023-10-26T12:07:56.877Z,0.05
2023-10-26T12:10:25.085Z,0.13
2023-10-26T12:12:53.529Z,0.47
2023-10-26T12:15:22.009Z,0.35
2023-10-26T12:17:50.050Z,0.50
2023-10-26T12:20:18.484Z,0.52
2023-10-26T12:22:47.133Z,0.32
2023-10-26T12:25:15.047Z,0.22
2023-10-26T12:28:21.296Z,0.30
2023-10-26T12:30:30.868Z,0.30
2023-10-26T12:32:58.682Z,0.35
2023-10-26T12:35:28.785Z,0.30
2023-10-26T12:37:56.694Z,0.10
2023-10-26T12:40:24.739Z,0.00
2023-10-26T12:42:52.588Z,0.30
2023-10-26T12:45:20.567Z,0.30
2023-10-26T12:47:48.269Z,0.35
2023-10-26T12:50:16.677Z,0.60
2023-10-26T12:52:44.760Z,0.60
2023-10-26T12:55:13.617Z,0.22
2023-10-26T12:57:41.483Z,0.13
2023-10-26T13:00:09.859Z,0.10
2023-10-26T13:02:37.684Z,0.10
2023-10-26T13:05:05.964Z,0.20
2023-10-26T13:07:34.066Z,0.20
2023-10-26T13:10:02.073Z,0.03
2023-10-26T13:12:30.096Z,0.20
2023-10-26T13:15:04.169Z,0.25
2023-10-26T13:17:33.527Z,0.20
2023-10-26T13:20:01.717Z,0.10
2023-10-26T13:22:29.492Z,0.25
2023-10-26T13:24:57.258Z,0.35
2023-10-26T13:27:25.242Z,0.20
2023-10-26T13:29:52.966Z,0.10
2023-10-26T13:32:20.659Z,0.15
2023-10-26T13:34:48.770Z,0.13
2023-10-26T13:37:16.799Z,0.25
2023-10-26T13:39:45.113Z,0.15
2023-10-26T13:42:13.277Z,0.10
2023-10-26T13:44:41.001Z,0.00
2023-10-26T13:47:08.737Z,0.50
2023-10-26T13:49:36.632Z,0.20
2023-10-26T13:52:04.577Z,0.25
2023-10-26T13:54:32.575Z,0.22
2023-10-26T13:57:00.669Z,0.10
2023-10-26T13:59:28.433Z,0.25
2023-10-26T14:01:56.703Z,0.85
2023-10-26T14:04:24.734Z,0.20
2023-10-26T14:06:52.495Z,0.50
2023-10-26T14:09:20.300Z,0.15
2023-10-26T14:11:48.373Z,0.10
2023-10-26T14:14:16.200Z,0.20
2023-10-26T14:16:43.895Z,0.20
2023-10-26T14:19:11.993Z,0.25
2023-10-26T14:21:39.728Z,0.22
2023-10-26T14:24:07.935Z,0.55
2023-10-26T14:26:35.932Z,0.10
2023-10-26T14:29:03.698Z,0.00
2023-10-26T14:31:31.658Z,0.20
2023-10-26T14:33:59.780Z,0.57
2023-10-26T14:36:27.756Z,0.20
2023-10-26T14:38:55.536Z,0.20
2023-10-26T14:41:23.593Z,0.22
2023-10-26T14:43:53.810Z,0.50
2023-10-26T14:46:23.956Z,0.17
2023-10-26T14:48:57.830Z,0.20
2023-10-26T14:51:25.558Z,0.30
2023-10-26T14:53:53.406Z,1.20
2023-10-26T14:56:21.332Z,0.35
2023-10-26T14:58:49.076Z,0.77
2023-10-26T15:01:17.287Z,0.93
2023-10-26T15:03:45.566Z,1.40
2023-10-26T15:06:13.524Z,0.88
2023-10-26T15:08:41.286Z,0.65
2023-10-26T15:11:23.570Z,1.27
2023-10-26T15:13:55.841Z,0.98
2023-10-26T15:16:24.034Z,1.70
2023-10-26T15:18:51.863Z,0.43
2023-10-26T15:21:19.658Z,0.85
2023-10-26T15:23:47.727Z,0.90
2023-10-26T15:26:15.793Z,3.03
2023-10-26T15:28:43.601Z,1.27
2023-10-26T15:31:11.727Z,3.28
2023-10-26T15:33:39.411Z,1.42
2023-10-26T15:36:07.209Z,2.22
2023-10-26T15:38:35.217Z,1.60
2023-10-26T15:41:05.235Z,0.93
2023-10-26T15:43:35.135Z,1.85
2023-10-26T15:46:03.637Z,1.45
2023-10-26T15:49:33.334Z,1.10
2023-10-26T15:51:23.067Z,1.73
2023-10-26T15:53:50.791Z,2.62
2023-10-26T15:56:18.623Z,2.87
2023-10-26T15:58:46.615Z,1.65
2023-10-26T16:01:14.623Z,2.40
2023-10-26T16:03:42.842Z,3.53
2023-10-26T16:06:13.816Z,3.83
2023-10-26T16:11:11.358Z,1.70
2023-10-26T16:13:39.221Z,3.40
2023-10-26T16:16:07.227Z,2.78
2023-10-26T16:18:35.360Z,2.75
2023-10-26T16:21:05.350Z,3.67
2023-10-26T16:23:33.035Z,3.30
2023-10-26T16:26:01.334Z,4.18
2023-10-26T16:28:28.995Z,4.72
2023-10-26T16:30:56.742Z,2.67
2023-10-26T16:33:24.811Z,6.80
2023-10-26T16:35:52.464Z,4.70
2023-10-26T16:38:20.220Z,6.68
2023-10-26T16:40:48.272Z,4.10
2023-10-26T16:43:16.445Z,3.95
2023-10-26T16:45:44.389Z,5.20
2023-10-26T16:48:14.995Z,4.65
2023-10-26T16:50:43.041Z,5.32
2023-10-26T16:53:23.329Z,2.87
2023-10-26T16:55:59.945Z,3.60
2023-10-26T16:58:28.256Z,5.43
2023-10-26T17:00:59.015Z,4.65
2023-10-26T17:03:30.842Z,4.10
2023-10-26T17:05:59.015Z,2.65
2023-10-26T17:08:26.685Z,3.17
2023-10-26T17:10:54.494Z,2.35
2023-10-26T17:13:22.513Z,1.77
2023-10-26T17:15:50.224Z,2.50
2023-10-26T17:18:25.486Z,2.00
2023-10-26T17:20:57.472Z,3.15
2023-10-26T17:23:25.474Z,2.17
2023-10-26T17:25:53.561Z,1.17
2023-10-26T17:28:21.486Z,1.23
2023-10-26T17:30:49.406Z,1.35
2023-10-26T17:33:19.655Z,0.90
2023-10-26T17:35:47.769Z,2.20
2023-10-26T17:38:15.928Z,0.73
2023-10-26T17:40:46.301Z,1.45
2023-10-26T17:45:42.818Z,0.73
2023-10-26T17:48:11.391Z,0.50
2023-10-26T17:50:48.356Z,0.62
2023-10-26T17:53:16.853Z,0.30
2023-10-26T17:55:46.921Z,0.47
2023-10-26T17:58:25.795Z,1.00
2023-10-26T18:01:12.980Z,1.17
2023-10-26T18:03:42.829Z,0.80
2023-10-26T18:06:11.966Z,0.50
2023-10-26T18:08:39.773Z,1.12
2023-10-26T18:11:13.432Z,1.45
2023-10-26T18:13:41.510Z,1.40
2023-10-26T18:16:09.941Z,1.17
2023-10-26T18:22:36.766Z,0.77
2023-10-26T18:28:43.681Z,0.62
2023-10-26T18:31:26.749Z,0.65
2023-10-26T18:34:09.109Z,1.12
2023-10-26T18:36:39.097Z,0.80
2023-10-26T18:39:07.107Z,0.88
2023-10-26T18:41:34.839Z,1.58
2023-10-26T18:44:03.020Z,0.60
2023-10-26T18:46:31.813Z,0.93
2023-10-26T18:49:02.855Z,0.75
2023-10-26T18:53:58.579Z,0.65
2023-10-26T18:56:26.544Z,1.12
2023-10-26T18:58:55.085Z,0.35
2023-10-26T19:01:25.411Z,0.80
2023-10-26T19:04:02.097Z,0.55
2023-10-26T19:06:32.328Z,0.20
2023-10-26T19:09:03.691Z,0.10
2023-10-26T19:11:34.250Z,0.52
2023-10-26T19:14:05.443Z,1.33
2023-10-26T19:16:33.575Z,3.08
2023-10-26T19:19:01.538Z,0.90
2023-10-26T19:21:29.622Z,0.30
2023-10-26T19:23:57.284Z,0.98
2023-10-26T19:26:28.300Z,0.70
2023-10-26T19:28:56.984Z,0.63
2023-10-26T19:31:25.076Z,0.73
2023-10-26T19:33:53.147Z,0.15
2023-10-26T19:36:21.184Z,0.65
2023-10-26T19:38:49.217Z,1.25
2023-10-26T19:41:17.452Z,0.15
2023-10-26T19:43:46.327Z,0.20
2023-10-26T19:46:14.594Z,1.67
2023-10-26T19:48:46.781Z,5.35
2023-10-26T19:51:15.448Z,3.30
2023-10-26T19:53:43.437Z,1.20
2023-10-26T19:56:11.083Z,1.65
2023-10-26T19:58:39.359Z,1.30
2023-10-26T20:01:12.337Z,0.95
2023-10-26T20:03:41.763Z,0.55
2023-10-26T20:06:09.894Z,2.00
2023-10-26T20:08:37.741Z,2.05
2023-10-26T20:11:06.011Z,0.68
2023-10-26T20:13:34.331Z,1.25
2023-10-26T20:16:02.542Z,0.88
2023-10-26T20:18:41.023Z,0.73
2023-10-26T20:21:09.498Z,0.20
2023-10-26T20:23:38.009Z,0.65
2023-10-26T20:26:05.944Z,0.50
2023-10-26T20:28:36.545Z,0.70
2023-10-26T20:31:05.283Z,0.90
2023-10-26T20:33:33.204Z,0.40
2023-10-26T20:36:01.037Z,0.57
2023-10-26T20:38:29.274Z,0.08
2023-10-26T20:40:57.089Z,0.52
2023-10-26T20:43:25.012Z,0.68
2023-10-26T20:45:57.842Z,0.35
2023-10-26T20:48:26.000Z,0.57
2023-10-26T20:50:55.394Z,0.40
2023-10-26T20:55:59.212Z,0.22
2023-10-26T20:58:27.620Z,0.25
2023-10-26T21:00:55.710Z,0.75
2023-10-26T21:03:23.414Z,0.95
2023-10-26T21:05:51.163Z,0.25
2023-10-26T21:08:20.605Z,0.20
2023-10-26T21:10:48.323Z,0.37
2023-10-26T21:13:16.327Z,0.35
2023-10-26T21:15:44.468Z,0.40
2023-10-26T21:18:12.285Z,0.20
2023-10-26T21:20:40.731Z,0.43
2023-10-26T21:23:08.722Z,0.10
2023-10-26T21:25:36.413Z,0.00
2023-10-26T21:28:04.185Z,0.80
2023-10-26T21:30:32.182Z,0.43
2023-10-26T21:32:59.948Z,0.65
2023-10-26T21:35:27.687Z,1.37
2023-10-26T21:37:55.631Z,0.32
2023-10-26T21:40:23.929Z,0.43
2023-10-26T21:42:51.626Z,0.73
2023-10-26T21:45:19.643Z,0.05
2023-10-26T21:47:47.322Z,0.15
2023-10-26T21:50:15.192Z,0.10
2023-10-26T21:52:43.124Z,0.47
2023-10-26T21:55:10.813Z,0.08
2023-10-26T21:57:38.420Z,1.77
2023-10-26T22:00:07.098Z,0.20
2023-10-26T22:02:43.096Z,0.32
2023-10-26T22:05:11.064Z,0.32
2023-10-26T22:07:38.816Z,0.30
2023-10-26T22:10:07.428Z,0.30
2023-10-26T22:12:35.392Z,0.17
2023-10-26T22:15:03.229Z,0.08
2023-10-26T22:17:30.917Z,0.13
2023-10-26T22:19:58.971Z,0.03
2023-10-26T22:22:26.598Z,0.05
2023-10-26T22:24:54.237Z,0.17
2023-10-26T22:27:22.575Z,0.20
2023-10-26T22:29:50.398Z,1.05
2023-10-26T22:32:18.035Z,0.20
2023-10-26T22:34:46.126Z,0.03
2023-10-26T22:37:13.930Z,1.25
2023-10-26T22:39:42.080Z,0.95
2023-10-26T22:42:10.102Z,0.10
2023-10-26T22:44:37.770Z,0.10
2023-10-26T22:47:05.600Z,0.00
2023-10-26T22:49:33.636Z,0.65
2023-10-26T22:52:01.346Z,0.37
2023-10-26T22:54:29.527Z,0.22
2023-10-26T22:56:57.743Z,0.05
2023-10-26T22:59:25.743Z,0.30
2023-10-26T23:01:53.433Z,0.20
2023-10-26T23:04:21.569Z,0.28
2023-10-26T23:06:49.315Z,0.30
2023-10-26T23:09:18.738Z,0.20
2023-10-26T23:11:46.742Z,0.70
2023-10-26T23:14:14.512Z,0.20
2023-10-26T23:16:42.236Z,0.30
2023-10-26T23:19:10.304Z,0.52
2023-10-26T23:21:37.970Z,0.85
2023-10-26T23:24:06.111Z,0.10
2023-10-26T23:26:35.359Z,0.70
2023-10-26T23:29:04.565Z,0.10
2023-10-26T23:31:33.684Z,0.10
2023-10-26T23:34:01.715Z,0.15
2023-10-26T23:36:29.382Z,1.30
2023-10-26T23:38:58.454Z,0.43
2023-10-26T23:41:26.328Z,0.03
2023-10-26T23:43:54.124Z,0.20
2023-10-26T23:46:21.859Z,0.62
2023-10-26T23:48:49.892Z,0.00
2023-10-26T23:51:17.563Z,0.28
2023-10-26T23:53:45.192Z,0.10
2023-10-26T23:56:13.151Z,0.35
2023-10-26T23:58:40.937Z,0.08
